Upstream stations:
Downstream station:
SHEF ID: YUKO2 North Canadian River near Yukon,
STATION TYPE:
Regulating: Stage = 11.00, Flow = 3611
STAGE RIV-FLOW WTR-TEMP BAT-LOAD
ft cfs F volt
Ccp-Rev Ccp-Rev Ccp-Rev Ccp-Rev
(US/Central)
03/15 00:00 1.30 44 53.60 12.90
03/15 01:00 1.31 45 53.60 12.88
03/15 02:00 1.31 45 53.60 12.86
03/15 03:00 1.32 46 53.60 12.84
03/15 04:00 1.32 46 53.60 12.82
03/15 05:00 1.31 45 53.60 12.80
03/15 06:00 1.32 46 53.60 12.77
03/15 07:00 1.31 45 53.60 12.76
03/15 08:00 1.34 48 53.60 12.73
03/15 09:00 1.34 48 53.60 12.83
03/15 10:00 1.32 46 53.60 13.62
03/15 11:00 1.31 45 53.60 13.94
03/15 12:00 1.28 42 53.60 13.81
03/15 13:00 1.28 42 53.60 13.68
03/15 14:00 1.27 41 53.60 13.65
03/15 15:00 1.27 41 53.60 13.63
03/15 16:00 1.26 40 53.60 13.57
03/15 17:00 1.25 39 53.60 13.53
03/15 18:00 1.24 38 53.60 13.41
03/15 19:00 1.24 38 53.60 13.26
03/15 20:00 1.25 39 53.60 13.11
03/15 21:00 1.27 41 53.60 13.01
03/15 22:00 1.28 42 53.60 12.95
03/15 23:00 1.30 44 57.90 12.91